TimePDT,TemperatureF,Dew PointF,Humidity,Sea Level PressureIn,VisibilityMPH,Wind Direction,Wind SpeedMPH,Gust SpeedMPH,PrecipitationIn,Events,Conditions,WindDirDegrees,DateUTC
12:06 AM,39.2,37.4,93,30.28,0.5,Variable,6.9,-,N/A,Fog,Fog,0,2013-05-19 07:06:00
12:22 AM,39.2,37.4,93,30.28,0.5,Variable,4.6,-,N/A,Fog,Fog,0,2013-05-19 07:22:00
12:56 AM,39.0,37.9,96,30.30,0.2,North,6.9,-,N/A,Fog,Fog,350,2013-05-19 07:56:00
1:13 AM,39.2,37.4,93,30.30,0.5,North,8.1,-,N/A,Fog,Fog,350,2013-05-19 08:13:00
1:53 AM,39.2,37.4,93,30.30,0.2,North,8.1,-,N/A,Fog,Fog,350,2013-05-19 08:53:00
1:56 AM,39.0,37.9,96,30.30,0.2,Variable,5.8,-,N/A,Fog,Fog,0,2013-05-19 08:56:00
2:56 AM,39.0,37.9,96,30.31,0.2,North,8.1,-,N/A,Fog,Fog,360,2013-05-19 09:56:00
3:09 AM,39.2,37.4,93,30.31,0.5,North,9.2,16.1,N/A,Fog,Fog,10,2013-05-19 10:09:00
3:17 AM,39.2,37.4,93,30.31,0.8,NNE,10.4,17.3,N/A,,Overcast,20,2013-05-19 10:17:00
3:24 AM,37.4,37.4,100,30.31,1.2,North,12.7,20.7,N/A,,Overcast,10,2013-05-19 10:24:00
3:27 AM,37.4,37.4,100,30.31,2.0,NNE,12.7,20.7,N/A,,Overcast,20,2013-05-19 10:27:00
3:35 AM,37.4,35.6,93,30.31,10.0,NNE,15.0,23.0,N/A,,Overcast,30,2013-05-19 10:35:00
3:52 AM,37.4,37.4,100,30.32,10.0,NNE,9.2,19.6,N/A,,Overcast,20,2013-05-19 10:52:00
3:56 AM,39.0,37.0,93,30.32,1.2,North,6.9,16.1,N/A,,Overcast,10,2013-05-19 10:56:00
4:04 AM,39.2,37.4,93,30.32,0.2,North,6.9,-,N/A,Fog,Fog,360,2013-05-19 11:04:00
4:17 AM,39.2,37.4,93,30.32,0.2,North,5.8,-,N/A,Fog,Fog,350,2013-05-19 11:17:00
4:56 AM,39.0,37.9,96,30.32,0.2,North,8.1,-,N/A,Fog,Fog,360,2013-05-19 11:56:00
6:20 AM,39.2,37.4,93,30.34,0.2,NNE,8.1,-,N/A,Fog,Fog,30,2013-05-19 13:20:00
6:56 AM,39.0,37.9,96,30.33,0.5,NNE,8.1,-,N/A,Fog,Fog,30,2013-05-19 13:56:00
7:11 AM,39.2,37.4,93,30.34,0.2,North,6.9,-,N/A,Fog,Fog,10,2013-05-19 14:11:00
7:29 AM,39.2,37.4,93,30.34,1.0,NNE,6.9,-,N/A,,Overcast,30,2013-05-19 14:29:00
7:31 AM,39.2,37.4,93,30.34,2.0,NNE,8.1,-,N/A,,Overcast,30,2013-05-19 14:31:00
7:38 AM,39.2,39.2,100,30.34,2.0,NNE,6.9,-,N/A,,Overcast,20,2013-05-19 14:38:00
7:43 AM,39.2,39.2,100,30.34,1.2,NNE,6.9,-,N/A,,Overcast,20,2013-05-19 14:43:00
7:56 AM,41.0,39.0,93,30.35,0.8,NNE,9.2,-,N/A,,Overcast,20,2013-05-19 14:56:00
8:04 AM,41.0,39.2,93,30.34,2.0,Variable,4.6,-,N/A,,Overcast,0,2013-05-19 15:04:00
8:13 AM,42.8,41.0,93,30.34,1.2,NNE,4.6,-,0.01,,Overcast,20,2013-05-19 15:13:00
8:18 AM,42.8,39.2,87,30.35,1.5,NNE,5.8,-,0.01,,Overcast,20,2013-05-19 15:18:00
8:25 AM,42.8,41.0,93,30.34,0.8,Variable,3.5,-,0.01,,Overcast,0,2013-05-19 15:25:00
8:56 AM,42.1,39.9,92,30.37,0.5,Variable,5.8,-,0.01,Fog,Fog,0,2013-05-19 15:56:00
9:24 AM,42.8,41.0,93,30.35,0.2,Variable,3.5,-,N/A,Fog,Fog,0,2013-05-19 16:24:00
9:31 AM,42.8,42.8,100,30.35,0.5,Variable,3.5,-,N/A,Fog,Fog,0,2013-05-19 16:31:00
9:41 AM,42.8,41.0,93,30.35,0.2,Variable,4.6,-,N/A,Fog,Fog,0,2013-05-19 16:41:00
9:56 AM,43.0,42.1,97,30.37,0.2,Variable,3.5,-,N/A,Fog,Fog,0,2013-05-19 16:56:00
10:56 AM,46.0,42.1,86,30.36,0.5,NNE,5.8,-,N/A,Fog,Fog,20,2013-05-19 17:56:00
11:04 AM,46.4,42.8,87,30.35,1.5,North,4.6,-,N/A,,Overcast,10,2013-05-19 18:04:00
11:12 AM,46.4,42.8,87,30.35,2.0,North,5.8,-,N/A,,Overcast,350,2013-05-19 18:12:00
11:18 AM,46.4,42.8,87,30.35,4.0,Calm,Calm,-,N/A,,Haze,0,2013-05-19 18:18:00
11:43 AM,46.4,42.8,87,30.34,10.0,Variable,5.8,-,N/A,,Overcast,0,2013-05-19 18:43:00
12:56 PM,51.1,41.0,68,30.33,10.0,NNW,5.8,-,N/A,,Mostly Cloudy,340,2013-05-19 19:56:00
1:56 PM,55.0,41.0,59,30.31,10.0,Variable,3.5,-,N/A,,Overcast,0,2013-05-19 20:56:00
2:56 PM,57.0,39.9,53,30.30,10.0,Variable,4.6,-,N/A,,Scattered Clouds,0,2013-05-19 21:56:00
3:56 PM,57.0,41.0,55,30.29,10.0,NNW,8.1,-,N/A,,Clear,340,2013-05-19 22:56:00
4:56 PM,57.0,41.0,55,30.27,10.0,Variable,4.6,18.4,N/A,,Clear,0,2013-05-19 23:56:00
5:56 PM,55.9,42.1,60,30.27,10.0,Variable,4.6,-,N/A,,Clear,0,2013-05-20 00:56:00
6:56 PM,53.1,42.1,66,30.27,10.0,Variable,6.9,-,N/A,,Clear,0,2013-05-20 01:56:00
7:56 PM,48.9,41.0,74,30.27,10.0,NNW,8.1,18.4,N/A,,Clear,340,2013-05-20 02:56:00
8:56 PM,46.0,39.9,79,30.28,10.0,North,10.4,-,N/A,,Clear,350,2013-05-20 03:56:00
9:56 PM,45.0,39.0,80,30.28,10.0,North,13.8,19.6,N/A,,Clear,360,2013-05-20 04:56:00
10:56 PM,44.1,37.9,79,30.27,10.0,North,10.4,-,N/A,,Clear,350,2013-05-20 05:56:00
11:56 PM,45.0,37.0,74,30.25,10.0,North,10.4,-,N/A,,Clear,360,2013-05-20 06:56:00